sensor_id;sensor_type;location;lat;lon;timestamp;P1;durP1;ratioP1;P2;durP2;ratioP2
4837;SDS011;2433;48.768;9.154;2023-04-25T00:01:59;2.47;;;1.20;;
4837;SDS011;2433;48.768;9.154;2023-04-25T00:04:26;2.20;;;1.63;;
4837;SDS011;2433;48.768;9.154;2023-04-25T00:06:53;3.03;;;1.70;;
4837;SDS011;2433;48.768;9.154;2023-04-25T00:09:19;2.63;;;1.53;;
4837;SDS011;2433;48.768;9.154;2023-04-25T00:11:45;1.70;;;1.60;;
4837;SDS011;2433;48.768;9.154;2023-04-25T00:14:10;1.83;;;1.60;;
4837;SDS011;2433;48.768;9.154;2023-04-25T00:16:36;1.97;;;1.77;;
4837;SDS011;2433;48.768;9.154;2023-04-25T00:19:02;1.60;;;1.50;;
4837;SDS011;2433;48.768;9.154;2023-04-25T00:21:28;2.33;;;1.40;;
4837;SDS011;2433;48.768;9.154;2023-04-25T00:23:54;1.70;;;1.60;;
4837;SDS011;2433;48.768;9.154;2023-04-25T00:26:20;1.87;;;1.77;;
4837;SDS011;2433;48.768;9.154;2023-04-25T00:28:48;1.03;;;1.00;;
4837;SDS011;2433;48.768;9.154;2023-04-25T00:31:14;1.57;;;1.47;;
4837;SDS011;2433;48.768;9.154;2023-04-25T00:33:39;1.63;;;1.23;;
4837;SDS011;2433;48.768;9.154;2023-04-25T00:36:05;1.20;;;1.10;;
4837;SDS011;2433;48.768;9.154;2023-04-25T00:38:31;1.10;;;1.00;;
4837;SDS011;2433;48.768;9.154;2023-04-25T00:40:57;1.33;;;1.23;;
4837;SDS011;2433;48.768;9.154;2023-04-25T00:43:25;2.77;;;1.50;;
4837;SDS011;2433;48.768;9.154;2023-04-25T00:45:51;1.67;;;1.00;;
4837;SDS011;2433;48.768;9.154;2023-04-25T00:48:17;1.43;;;1.07;;
4837;SDS011;2433;48.768;9.154;2023-04-25T00:50:51;2.00;;;1.43;;
4837;SDS011;2433;48.768;9.154;2023-04-25T00:53:19;3.50;;;1.27;;
4837;SDS011;2433;48.768;9.154;2023-04-25T00:55:46;1.30;;;1.20;;
4837;SDS011;2433;48.768;9.154;2023-04-25T00:58:12;2.93;;;1.67;;
4837;SDS011;2433;48.768;9.154;2023-04-25T01:00:39;1.20;;;1.10;;
4837;SDS011;2433;48.768;9.154;2023-04-25T01:03:05;1.30;;;1.20;;
4837;SDS011;2433;48.768;9.154;2023-04-25T01:05:31;2.63;;;1.40;;
4837;SDS011;2433;48.768;9.154;2023-04-25T01:07:56;2.87;;;1.43;;
4837;SDS011;2433;48.768;9.154;2023-04-25T01:10:22;1.90;;;1.73;;
4837;SDS011;2433;48.768;9.154;2023-04-25T01:12:48;1.77;;;1.67;;
4837;SDS011;2433;48.768;9.154;2023-04-25T01:15:13;1.57;;;1.47;;
4837;SDS011;2433;48.768;9.154;2023-04-25T01:17:40;2.00;;;1.63;;
4837;SDS011;2433;48.768;9.154;2023-04-25T01:20:06;2.23;;;1.70;;
4837;SDS011;2433;48.768;9.154;2023-04-25T01:22:32;1.70;;;1.60;;
4837;SDS011;2433;48.768;9.154;2023-04-25T01:24:58;1.80;;;1.67;;
4837;SDS011;2433;48.768;9.154;2023-04-25T01:27:25;2.00;;;1.50;;
4837;SDS011;2433;48.768;9.154;2023-04-25T01:29:51;2.10;;;1.77;;
4837;SDS011;2433;48.768;9.154;2023-04-25T01:32:16;2.17;;;1.53;;
4837;SDS011;2433;48.768;9.154;2023-04-25T01:34:42;2.00;;;1.50;;
4837;SDS011;2433;48.768;9.154;2023-04-25T01:37:08;2.07;;;1.87;;
4837;SDS011;2433;48.768;9.154;2023-04-25T01:39:34;2.27;;;1.63;;
4837;SDS011;2433;48.768;9.154;2023-04-25T01:42:00;2.23;;;2.03;;
4837;SDS011;2433;48.768;9.154;2023-04-25T01:44:26;3.47;;;1.60;;
4837;SDS011;2433;48.768;9.154;2023-04-25T01:46:53;1.30;;;1.20;;
4837;SDS011;2433;48.768;9.154;2023-04-25T01:49:18;1.80;;;1.70;;
4837;SDS011;2433;48.768;9.154;2023-04-25T01:51:44;3.23;;;2.17;;
4837;SDS011;2433;48.768;9.154;2023-04-25T01:54:10;2.00;;;1.40;;
4837;SDS011;2433;48.768;9.154;2023-04-25T01:56:38;1.47;;;1.27;;
4837;SDS011;2433;48.768;9.154;2023-04-25T01:59:06;2.30;;;2.10;;
4837;SDS011;2433;48.768;9.154;2023-04-25T02:01:34;1.57;;;1.23;;
4837;SDS011;2433;48.768;9.154;2023-04-25T02:04:14;2.43;;;1.63;;
4837;SDS011;2433;48.768;9.154;2023-04-25T02:06:40;2.23;;;1.77;;
4837;SDS011;2433;48.768;9.154;2023-04-25T02:09:06;3.17;;;1.97;;
4837;SDS011;2433;48.768;9.154;2023-04-25T02:11:32;1.87;;;1.77;;
4837;SDS011;2433;48.768;9.154;2023-04-25T02:14:18;2.10;;;1.53;;
4837;SDS011;2433;48.768;9.154;2023-04-25T02:16:58;1.70;;;1.37;;
4837;SDS011;2433;48.768;9.154;2023-04-25T02:19:24;1.77;;;1.57;;
4837;SDS011;2433;48.768;9.154;2023-04-25T02:21:49;2.23;;;2.03;;
4837;SDS011;2433;48.768;9.154;2023-04-25T02:24:15;1.63;;;1.53;;
4837;SDS011;2433;48.768;9.154;2023-04-25T02:26:40;2.07;;;1.87;;
4837;SDS011;2433;48.768;9.154;2023-04-25T02:29:07;3.13;;;2.00;;
4837;SDS011;2433;48.768;9.154;2023-04-25T02:31:34;2.10;;;1.83;;
4837;SDS011;2433;48.768;9.154;2023-04-25T02:33:59;2.63;;;1.80;;
4837;SDS011;2433;48.768;9.154;2023-04-25T02:36:26;3.50;;;1.73;;
4837;SDS011;2433;48.768;9.154;2023-04-25T02:38:51;2.00;;;1.80;;
4837;SDS011;2433;48.768;9.154;2023-04-25T02:41:19;2.10;;;1.90;;
4837;SDS011;2433;48.768;9.154;2023-04-25T02:43:47;2.60;;;2.13;;
4837;SDS011;2433;48.768;9.154;2023-04-25T02:46:13;3.93;;;1.70;;
4837;SDS011;2433;48.768;9.154;2023-04-25T02:48:38;2.47;;;2.20;;
4837;SDS011;2433;48.768;9.154;2023-04-25T02:51:05;2.60;;;1.80;;
4837;SDS011;2433;48.768;9.154;2023-04-25T02:53:30;3.60;;;3.00;;
4837;SDS011;2433;48.768;9.154;2023-04-25T02:55:56;2.80;;;1.50;;
4837;SDS011;2433;48.768;9.154;2023-04-25T02:58:23;1.90;;;1.80;;
4837;SDS011;2433;48.768;9.154;2023-04-25T03:00:51;1.23;;;1.10;;
4837;SDS011;2433;48.768;9.154;2023-04-25T03:03:16;2.40;;;1.43;;
4837;SDS011;2433;48.768;9.154;2023-04-25T03:05:43;1.90;;;1.70;;
4837;SDS011;2433;48.768;9.154;2023-04-25T03:08:09;2.00;;;1.80;;
4837;SDS011;2433;48.768;9.154;2023-04-25T03:10:36;2.30;;;1.73;;
4837;SDS011;2433;48.768;9.154;2023-04-25T03:13:05;3.20;;;2.20;;
4837;SDS011;2433;48.768;9.154;2023-04-25T03:15:30;1.60;;;1.50;;
4837;SDS011;2433;48.768;9.154;2023-04-25T03:17:56;1.63;;;1.50;;
4837;SDS011;2433;48.768;9.154;2023-04-25T03:20:22;3.07;;;1.83;;
4837;SDS011;2433;48.768;9.154;2023-04-25T03:22:48;2.03;;;1.80;;
4837;SDS011;2433;48.768;9.154;2023-04-25T03:25:14;2.17;;;1.60;;
4837;SDS011;2433;48.768;9.154;2023-04-25T03:27:39;2.10;;;1.90;;
4837;SDS011;2433;48.768;9.154;2023-04-25T03:30:05;2.97;;;2.43;;
4837;SDS011;2433;48.768;9.154;2023-04-25T03:32:31;2.17;;;1.90;;
4837;SDS011;2433;48.768;9.154;2023-04-25T03:34:58;2.00;;;1.87;;
4837;SDS011;2433;48.768;9.154;2023-04-25T03:37:25;3.13;;;1.63;;
4837;SDS011;2433;48.768;9.154;2023-04-25T03:39:51;2.43;;;1.73;;
4837;SDS011;2433;48.768;9.154;2023-04-25T03:42:17;1.27;;;1.17;;
4837;SDS011;2433;48.768;9.154;2023-04-25T03:44:43;2.30;;;1.97;;
4837;SDS011;2433;48.768;9.154;2023-04-25T03:47:09;3.13;;;1.70;;
4837;SDS011;2433;48.768;9.154;2023-04-25T03:49:35;2.43;;;1.47;;
4837;SDS011;2433;48.768;9.154;2023-04-25T03:52:02;2.60;;;1.40;;
4837;SDS011;2433;48.768;9.154;2023-04-25T03:54:33;1.73;;;1.63;;
4837;SDS011;2433;48.768;9.154;2023-04-25T03:57:05;1.90;;;1.80;;
4837;SDS011;2433;48.768;9.154;2023-04-25T03:59:34;7.03;;;2.43;;
4837;SDS011;2433;48.768;9.154;2023-04-25T04:01:59;1.90;;;1.63;;
4837;SDS011;2433;48.768;9.154;2023-04-25T04:04:25;3.13;;;1.90;;
4837;SDS011;2433;48.768;9.154;2023-04-25T04:06:51;1.60;;;1.50;;
4837;SDS011;2433;48.768;9.154;2023-04-25T04:09:24;1.67;;;1.57;;
4837;SDS011;2433;48.768;9.154;2023-04-25T04:11:50;2.87;;;2.03;;
4837;SDS011;2433;48.768;9.154;2023-04-25T04:14:16;2.10;;;1.90;;
4837;SDS011;2433;48.768;9.154;2023-04-25T04:16:44;2.53;;;2.20;;
4837;SDS011;2433;48.768;9.154;2023-04-25T04:19:10;3.03;;;2.50;;
4837;SDS011;2433;48.768;9.154;2023-04-25T04:21:37;2.20;;;2.00;;
4837;SDS011;2433;48.768;9.154;2023-04-25T04:24:04;2.27;;;2.07;;
4837;SDS011;2433;48.768;9.154;2023-04-25T04:26:39;3.60;;;2.43;;
4837;SDS011;2433;48.768;9.154;2023-04-25T04:29:27;2.87;;;2.47;;
4837;SDS011;2433;48.768;9.154;2023-04-25T04:31:58;2.30;;;2.10;;
4837;SDS011;2433;48.768;9.154;2023-04-25T04:34:26;2.37;;;1.70;;
4837;SDS011;2433;48.768;9.154;2023-04-25T04:36:52;2.30;;;1.97;;
4837;SDS011;2433;48.768;9.154;2023-04-25T04:39:18;3.00;;;2.10;;
4837;SDS011;2433;48.768;9.154;2023-04-25T04:41:55;3.37;;;2.20;;
4837;SDS011;2433;48.768;9.154;2023-04-25T04:44:49;2.77;;;2.07;;
4837;SDS011;2433;48.768;9.154;2023-04-25T04:47:44;2.30;;;1.80;;
4837;SDS011;2433;48.768;9.154;2023-04-25T04:50:29;2.27;;;2.17;;
4837;SDS011;2433;48.768;9.154;2023-04-25T04:53:09;2.50;;;2.30;;
4837;SDS011;2433;48.768;9.154;2023-04-25T04:55:58;5.73;;;2.50;;
4837;SDS011;2433;48.768;9.154;2023-04-25T04:58:34;3.23;;;2.53;;
4837;SDS011;2433;48.768;9.154;2023-04-25T05:01:19;3.43;;;2.47;;
4837;SDS011;2433;48.768;9.154;2023-04-25T05:03:57;3.57;;;2.70;;
4837;SDS011;2433;48.768;9.154;2023-04-25T05:06:44;3.97;;;2.10;;
4837;SDS011;2433;48.768;9.154;2023-04-25T05:09:40;3.30;;;1.73;;
4837;SDS011;2433;48.768;9.154;2023-04-25T05:12:36;3.07;;;2.17;;
4837;SDS011;2433;48.768;9.154;2023-04-25T05:15:13;2.60;;;2.40;;
4837;SDS011;2433;48.768;9.154;2023-04-25T05:17:57;3.30;;;3.00;;
4837;SDS011;2433;48.768;9.154;2023-04-25T05:20:44;3.07;;;2.63;;
4837;SDS011;2433;48.768;9.154;2023-04-25T05:23:22;3.60;;;2.87;;
4837;SDS011;2433;48.768;9.154;2023-04-25T05:25:59;2.90;;;2.50;;
4837;SDS011;2433;48.768;9.154;2023-04-25T05:28:42;3.67;;;2.50;;
4837;SDS011;2433;48.768;9.154;2023-04-25T05:31:08;2.40;;;2.20;;
4837;SDS011;2433;48.768;9.154;2023-04-25T05:33:46;2.77;;;2.53;;
4837;SDS011;2433;48.768;9.154;2023-04-25T05:36:11;3.07;;;2.53;;
4837;SDS011;2433;48.768;9.154;2023-04-25T05:38:37;4.00;;;2.40;;
4837;SDS011;2433;48.768;9.154;2023-04-25T05:41:21;3.87;;;3.00;;
4837;SDS011;2433;48.768;9.154;2023-04-25T05:43:53;2.90;;;2.60;;
4837;SDS011;2433;48.768;9.154;2023-04-25T05:46:23;3.03;;;2.60;;
4837;SDS011;2433;48.768;9.154;2023-04-25T05:49:07;1.73;;;1.50;;
4837;SDS011;2433;48.768;9.154;2023-04-25T05:51:42;2.47;;;2.27;;
4837;SDS011;2433;48.768;9.154;2023-04-25T05:54:46;2.37;;;2.17;;
4837;SDS011;2433;48.768;9.154;2023-04-25T05:57:22;2.10;;;1.90;;
4837;SDS011;2433;48.768;9.154;2023-04-25T05:59:49;3.33;;;2.80;;
4837;SDS011;2433;48.768;9.154;2023-04-25T06:02:14;2.33;;;2.13;;
4837;SDS011;2433;48.768;9.154;2023-04-25T06:04:43;2.17;;;2.00;;
4837;SDS011;2433;48.768;9.154;2023-04-25T06:07:08;2.57;;;2.37;;
4837;SDS011;2433;48.768;9.154;2023-04-25T06:09:35;1.87;;;1.70;;
4837;SDS011;2433;48.768;9.154;2023-04-25T06:12:00;2.87;;;2.10;;
4837;SDS011;2433;48.768;9.154;2023-04-25T06:14:28;2.03;;;1.83;;
4837;SDS011;2433;48.768;9.154;2023-04-25T06:16:53;3.60;;;2.10;;
4837;SDS011;2433;48.768;9.154;2023-04-25T06:19:19;2.90;;;2.00;;
4837;SDS011;2433;48.768;9.154;2023-04-25T06:21:45;2.50;;;2.30;;
4837;SDS011;2433;48.768;9.154;2023-04-25T06:24:10;2.10;;;1.90;;
4837;SDS011;2433;48.768;9.154;2023-04-25T06:26:36;3.33;;;2.13;;
4837;SDS011;2433;48.768;9.154;2023-04-25T06:29:02;3.00;;;2.67;;
4837;SDS011;2433;48.768;9.154;2023-04-25T06:31:28;3.50;;;2.70;;
4837;SDS011;2433;48.768;9.154;2023-04-25T06:34:00;2.27;;;2.07;;
4837;SDS011;2433;48.768;9.154;2023-04-25T06:36:27;3.40;;;2.50;;
4837;SDS011;2433;48.768;9.154;2023-04-25T06:38:57;2.50;;;2.30;;
4837;SDS011;2433;48.768;9.154;2023-04-25T06:41:22;2.93;;;2.33;;
4837;SDS011;2433;48.768;9.154;2023-04-25T06:43:48;2.53;;;2.00;;
4837;SDS011;2433;48.768;9.154;2023-04-25T06:46:27;2.30;;;2.03;;
4837;SDS011;2433;48.768;9.154;2023-04-25T06:48:56;3.30;;;2.20;;
4837;SDS011;2433;48.768;9.154;2023-04-25T06:51:21;2.57;;;2.37;;
4837;SDS011;2433;48.768;9.154;2023-04-25T06:53:47;2.57;;;2.37;;
4837;SDS011;2433;48.768;9.154;2023-04-25T06:56:23;3.10;;;2.80;;
4837;SDS011;2433;48.768;9.154;2023-04-25T06:58:55;3.83;;;2.53;;
4837;SDS011;2433;48.768;9.154;2023-04-25T07:01:30;2.83;;;2.53;;
4837;SDS011;2433;48.768;9.154;2023-04-25T07:03:57;2.83;;;2.63;;
4837;SDS011;2433;48.768;9.154;2023-04-25T07:06:23;3.60;;;2.90;;
4837;SDS011;2433;48.768;9.154;2023-04-25T07:08:51;4.40;;;2.80;;
4837;SDS011;2433;48.768;9.154;2023-04-25T07:11:17;3.17;;;2.43;;
4837;SDS011;2433;48.768;9.154;2023-04-25T07:13:42;2.20;;;2.00;;
4837;SDS011;2433;48.768;9.154;2023-04-25T07:16:08;3.20;;;2.57;;
4837;SDS011;2433;48.768;9.154;2023-04-25T07:18:35;3.07;;;2.70;;
4837;SDS011;2433;48.768;9.154;2023-04-25T07:21:01;2.40;;;2.20;;
4837;SDS011;2433;48.768;9.154;2023-04-25T07:23:28;3.20;;;2.90;;
4837;SDS011;2433;48.768;9.154;2023-04-25T07:25:54;3.23;;;3.03;;
4837;SDS011;2433;48.768;9.154;2023-04-25T07:28:23;3.37;;;2.63;;
4837;SDS011;2433;48.768;9.154;2023-04-25T07:30:48;2.90;;;2.60;;
4837;SDS011;2433;48.768;9.154;2023-04-25T07:33:14;3.10;;;2.30;;
4837;SDS011;2433;48.768;9.154;2023-04-25T07:35:40;3.40;;;2.60;;
4837;SDS011;2433;48.768;9.154;2023-04-25T07:38:05;2.90;;;2.60;;
4837;SDS011;2433;48.768;9.154;2023-04-25T07:40:32;4.63;;;2.90;;
4837;SDS011;2433;48.768;9.154;2023-04-25T07:43:03;2.80;;;2.43;;
4837;SDS011;2433;48.768;9.154;2023-04-25T07:45:36;3.10;;;2.80;;
4837;SDS011;2433;48.768;9.154;2023-04-25T07:48:02;5.40;;;2.87;;
4837;SDS011;2433;48.768;9.154;2023-04-25T07:50:30;5.20;;;3.20;;
4837;SDS011;2433;48.768;9.154;2023-04-25T07:52:56;4.27;;;2.80;;
4837;SDS011;2433;48.768;9.154;2023-04-25T07:55:28;3.30;;;2.87;;
4837;SDS011;2433;48.768;9.154;2023-04-25T07:58:15;4.23;;;3.13;;
4837;SDS011;2433;48.768;9.154;2023-04-25T08:00:46;3.47;;;3.10;;
4837;SDS011;2433;48.768;9.154;2023-04-25T08:03:38;2.60;;;2.40;;
4837;SDS011;2433;48.768;9.154;2023-04-25T08:06:08;4.30;;;3.20;;
4837;SDS011;2433;48.768;9.154;2023-04-25T08:08:42;4.17;;;3.07;;
4837;SDS011;2433;48.768;9.154;2023-04-25T08:11:10;4.30;;;3.90;;
4837;SDS011;2433;48.768;9.154;2023-04-25T08:13:36;2.60;;;2.30;;
4837;SDS011;2433;48.768;9.154;2023-04-25T08:16:02;3.37;;;3.07;;
4837;SDS011;2433;48.768;9.154;2023-04-25T08:18:28;4.70;;;3.50;;
4837;SDS011;2433;48.768;9.154;2023-04-25T08:20:53;4.97;;;3.93;;
4837;SDS011;2433;48.768;9.154;2023-04-25T08:23:19;3.10;;;2.80;;
4837;SDS011;2433;48.768;9.154;2023-04-25T08:26:11;4.33;;;2.90;;
4837;SDS011;2433;48.768;9.154;2023-04-25T08:28:38;4.30;;;3.60;;
4837;SDS011;2433;48.768;9.154;2023-04-25T08:31:04;4.43;;;3.03;;
4837;SDS011;2433;48.768;9.154;2023-04-25T08:33:37;4.70;;;3.17;;
4837;SDS011;2433;48.768;9.154;2023-04-25T08:36:31;2.97;;;2.70;;
4837;SDS011;2433;48.768;9.154;2023-04-25T08:38:58;3.33;;;3.03;;
4837;SDS011;2433;48.768;9.154;2023-04-25T08:41:24;4.13;;;3.07;;
4837;SDS011;2433;48.768;9.154;2023-04-25T08:43:50;4.37;;;3.30;;
4837;SDS011;2433;48.768;9.154;2023-04-25T08:46:17;3.43;;;2.97;;
4837;SDS011;2433;48.768;9.154;2023-04-25T08:49:05;3.40;;;3.03;;
4837;SDS011;2433;48.768;9.154;2023-04-25T08:51:32;3.57;;;3.27;;
4837;SDS011;2433;48.768;9.154;2023-04-25T08:54:05;4.73;;;2.73;;
4837;SDS011;2433;48.768;9.154;2023-04-25T08:56:34;3.00;;;2.70;;
4837;SDS011;2433;48.768;9.154;2023-04-25T08:59:01;3.23;;;2.70;;
4837;SDS011;2433;48.768;9.154;2023-04-25T09:01:28;4.10;;;2.93;;
4837;SDS011;2433;48.768;9.154;2023-04-25T09:03:53;3.40;;;2.80;;
4837;SDS011;2433;48.768;9.154;2023-04-25T09:06:19;4.40;;;3.50;;
4837;SDS011;2433;48.768;9.154;2023-04-25T09:08:45;3.77;;;2.90;;
4837;SDS011;2433;48.768;9.154;2023-04-25T09:11:12;5.13;;;3.60;;
4837;SDS011;2433;48.768;9.154;2023-04-25T09:13:38;4.13;;;3.30;;
4837;SDS011;2433;48.768;9.154;2023-04-25T09:16:25;4.93;;;3.40;;
4837;SDS011;2433;48.768;9.154;2023-04-25T09:19:26;8.63;;;3.20;;
4837;SDS011;2433;48.768;9.154;2023-04-25T09:22:29;4.20;;;3.20;;
4837;SDS011;2433;48.768;9.154;2023-04-25T09:24:55;4.23;;;3.03;;
4837;SDS011;2433;48.768;9.154;2023-04-25T09:27:24;3.60;;;3.20;;
4837;SDS011;2433;48.768;9.154;2023-04-25T09:30:04;3.83;;;3.30;;
4837;SDS011;2433;48.768;9.154;2023-04-25T09:32:48;3.13;;;2.80;;
4837;SDS011;2433;48.768;9.154;2023-04-25T09:35:23;3.33;;;3.13;;
4837;SDS011;2433;48.768;9.154;2023-04-25T09:37:50;2.90;;;2.70;;
4837;SDS011;2433;48.768;9.154;2023-04-25T09:40:38;4.47;;;2.90;;
4837;SDS011;2433;48.768;9.154;2023-04-25T09:43:23;3.90;;;3.20;;
4837;SDS011;2433;48.768;9.154;2023-04-25T09:45:51;2.67;;;2.47;;
4837;SDS011;2433;48.768;9.154;2023-04-25T09:48:18;4.13;;;2.43;;
4837;SDS011;2433;48.768;9.154;2023-04-25T09:53:31;3.00;;;2.70;;
4837;SDS011;2433;48.768;9.154;2023-04-25T09:56:13;2.90;;;2.20;;
4837;SDS011;2433;48.768;9.154;2023-04-25T09:58:39;2.63;;;2.40;;
4837;SDS011;2433;48.768;9.154;2023-04-25T10:01:06;2.17;;;1.97;;
4837;SDS011;2433;48.768;9.154;2023-04-25T10:03:43;1.70;;;1.60;;
4837;SDS011;2433;48.768;9.154;2023-04-25T10:06:29;4.90;;;2.33;;
4837;SDS011;2433;48.768;9.154;2023-04-25T10:08:56;1.80;;;1.70;;
4837;SDS011;2433;48.768;9.154;2023-04-25T10:11:22;2.57;;;1.50;;
4837;SDS011;2433;48.768;9.154;2023-04-25T10:13:49;2.30;;;1.47;;
4837;SDS011;2433;48.768;9.154;2023-04-25T10:16:15;1.27;;;1.10;;
4837;SDS011;2433;48.768;9.154;2023-04-25T10:18:41;1.43;;;1.13;;
4837;SDS011;2433;48.768;9.154;2023-04-25T10:21:07;1.40;;;1.00;;
4837;SDS011;2433;48.768;9.154;2023-04-25T10:23:33;1.70;;;1.07;;
4837;SDS011;2433;48.768;9.154;2023-04-25T10:26:02;2.87;;;1.50;;
4837;SDS011;2433;48.768;9.154;2023-04-25T10:28:27;0.87;;;0.87;;
4837;SDS011;2433;48.768;9.154;2023-04-25T10:30:57;2.03;;;1.20;;
4837;SDS011;2433;48.768;9.154;2023-04-25T10:33:34;2.37;;;0.90;;
4837;SDS011;2433;48.768;9.154;2023-04-25T10:36:10;1.20;;;1.10;;
4837;SDS011;2433;48.768;9.154;2023-04-25T10:38:37;1.97;;;0.90;;
4837;SDS011;2433;48.768;9.154;2023-04-25T10:41:06;1.20;;;0.80;;
4837;SDS011;2433;48.768;9.154;2023-04-25T10:43:37;1.83;;;0.87;;
4837;SDS011;2433;48.768;9.154;2023-04-25T10:48:52;0.90;;;0.90;;
4837;SDS011;2433;48.768;9.154;2023-04-25T10:51:28;0.83;;;0.67;;
4837;SDS011;2433;48.768;9.154;2023-04-25T10:54:03;1.43;;;1.20;;
4837;SDS011;2433;48.768;9.154;2023-04-25T10:59:10;3.00;;;1.77;;
4837;SDS011;2433;48.768;9.154;2023-04-25T11:04:06;3.67;;;2.80;;
4837;SDS011;2433;48.768;9.154;2023-04-25T11:09:40;3.40;;;2.70;;
4837;SDS011;2433;48.768;9.154;2023-04-25T11:12:09;1.10;;;0.93;;
4837;SDS011;2433;48.768;9.154;2023-04-25T11:14:36;2.57;;;2.03;;
4837;SDS011;2433;48.768;9.154;2023-04-25T11:17:02;2.70;;;2.20;;
4837;SDS011;2433;48.768;9.154;2023-04-25T11:19:28;1.07;;;0.70;;
4837;SDS011;2433;48.768;9.154;2023-04-25T11:21:54;2.10;;;1.80;;
4837;SDS011;2433;48.768;9.154;2023-04-25T11:24:25;3.23;;;2.23;;
4837;SDS011;2433;48.768;9.154;2023-04-25T11:27:01;2.23;;;1.90;;
4837;SDS011;2433;48.768;9.154;2023-04-25T11:29:28;1.83;;;1.50;;
4837;SDS011;2433;48.768;9.154;2023-04-25T11:31:54;1.90;;;1.13;;
4837;SDS011;2433;48.768;9.154;2023-04-25T11:34:23;2.40;;;1.63;;
4837;SDS011;2433;48.768;9.154;2023-04-25T11:36:52;2.27;;;1.97;;
4837;SDS011;2433;48.768;9.154;2023-04-25T11:39:18;2.90;;;1.93;;
4837;SDS011;2433;48.768;9.154;2023-04-25T11:41:45;3.30;;;2.30;;
4837;SDS011;2433;48.768;9.154;2023-04-25T11:44:11;3.47;;;2.20;;
4837;SDS011;2433;48.768;9.154;2023-04-25T11:46:37;6.97;;;2.27;;
4837;SDS011;2433;48.768;9.154;2023-04-25T11:49:02;4.07;;;2.10;;
4837;SDS011;2433;48.768;9.154;2023-04-25T11:51:30;1.87;;;1.67;;
4837;SDS011;2433;48.768;9.154;2023-04-25T11:53:56;2.53;;;2.20;;
4837;SDS011;2433;48.768;9.154;2023-04-25T11:56:22;2.90;;;2.60;;
4837;SDS011;2433;48.768;9.154;2023-04-25T11:59:21;4.60;;;2.70;;
4837;SDS011;2433;48.768;9.154;2023-04-25T12:01:40;2.97;;;2.60;;
4837;SDS011;2433;48.768;9.154;2023-04-25T12:04:25;4.03;;;2.63;;
4837;SDS011;2433;48.768;9.154;2023-04-25T12:06:52;2.63;;;2.43;;
4837;SDS011;2433;48.768;9.154;2023-04-25T12:09:29;4.10;;;3.13;;
4837;SDS011;2433;48.768;9.154;2023-04-25T12:11:56;3.10;;;2.80;;
4837;SDS011;2433;48.768;9.154;2023-04-25T12:14:31;2.60;;;2.40;;
4837;SDS011;2433;48.768;9.154;2023-04-25T12:16:59;3.67;;;3.13;;
4837;SDS011;2433;48.768;9.154;2023-04-25T12:19:26;3.90;;;3.10;;
4837;SDS011;2433;48.768;9.154;2023-04-25T12:21:57;4.30;;;3.10;;
4837;SDS011;2433;48.768;9.154;2023-04-25T12:24:24;3.20;;;2.57;;
4837;SDS011;2433;48.768;9.154;2023-04-25T12:26:58;2.87;;;2.57;;
4837;SDS011;2433;48.768;9.154;2023-04-25T12:29:28;3.90;;;2.90;;
4837;SDS011;2433;48.768;9.154;2023-04-25T12:31:55;4.57;;;3.40;;
4837;SDS011;2433;48.768;9.154;2023-04-25T12:34:21;5.43;;;3.53;;
4837;SDS011;2433;48.768;9.154;2023-04-25T12:36:50;4.23;;;3.20;;
4837;SDS011;2433;48.768;9.154;2023-04-25T12:39:20;7.47;;;4.60;;
4837;SDS011;2433;48.768;9.154;2023-04-25T12:41:50;4.67;;;3.70;;
4837;SDS011;2433;48.768;9.154;2023-04-25T12:44:17;5.20;;;3.77;;
4837;SDS011;2433;48.768;9.154;2023-04-25T12:46:42;4.63;;;3.73;;
4837;SDS011;2433;48.768;9.154;2023-04-25T12:49:08;4.60;;;3.73;;
4837;SDS011;2433;48.768;9.154;2023-04-25T12:51:34;4.57;;;4.10;;
4837;SDS011;2433;48.768;9.154;2023-04-25T12:54:01;5.53;;;3.60;;
4837;SDS011;2433;48.768;9.154;2023-04-25T12:56:31;4.00;;;3.60;;
4837;SDS011;2433;48.768;9.154;2023-04-25T12:58:57;4.43;;;3.67;;
4837;SDS011;2433;48.768;9.154;2023-04-25T13:01:23;4.93;;;3.13;;
4837;SDS011;2433;48.768;9.154;2023-04-25T13:03:49;4.63;;;3.70;;
4837;SDS011;2433;48.768;9.154;2023-04-25T13:06:15;3.63;;;3.00;;
4837;SDS011;2433;48.768;9.154;2023-04-25T13:08:41;5.00;;;3.83;;
4837;SDS011;2433;48.768;9.154;2023-04-25T13:11:07;4.17;;;3.57;;
4837;SDS011;2433;48.768;9.154;2023-04-25T13:13:33;4.30;;;3.50;;
4837;SDS011;2433;48.768;9.154;2023-04-25T13:16:00;11.37;;;4.00;;
4837;SDS011;2433;48.768;9.154;2023-04-25T13:18:28;5.27;;;4.13;;
4837;SDS011;2433;48.768;9.154;2023-04-25T13:20:54;3.73;;;3.43;;
4837;SDS011;2433;48.768;9.154;2023-04-25T13:23:20;6.30;;;3.70;;
4837;SDS011;2433;48.768;9.154;2023-04-25T13:25:46;4.27;;;3.30;;
4837;SDS011;2433;48.768;9.154;2023-04-25T13:28:12;5.77;;;3.97;;
4837;SDS011;2433;48.768;9.154;2023-04-25T13:30:38;6.63;;;4.07;;
4837;SDS011;2433;48.768;9.154;2023-04-25T13:33:04;3.60;;;3.00;;
4837;SDS011;2433;48.768;9.154;2023-04-25T13:35:32;4.80;;;3.40;;
4837;SDS011;2433;48.768;9.154;2023-04-25T13:37:58;7.53;;;3.87;;
4837;SDS011;2433;48.768;9.154;2023-04-25T13:40:24;5.33;;;3.47;;
4837;SDS011;2433;48.768;9.154;2023-04-25T13:42:50;4.30;;;3.90;;
4837;SDS011;2433;48.768;9.154;2023-04-25T13:45:16;6.33;;;4.73;;
4837;SDS011;2433;48.768;9.154;2023-04-25T13:47:42;5.93;;;4.77;;
4837;SDS011;2433;48.768;9.154;2023-04-25T13:50:08;6.70;;;4.13;;
4837;SDS011;2433;48.768;9.154;2023-04-25T13:52:34;6.00;;;5.50;;
4837;SDS011;2433;48.768;9.154;2023-04-25T13:55:00;6.97;;;5.80;;
4837;SDS011;2433;48.768;9.154;2023-04-25T13:57:32;6.43;;;5.40;;
4837;SDS011;2433;48.768;9.154;2023-04-25T14:00:02;6.83;;;5.90;;
4837;SDS011;2433;48.768;9.154;2023-04-25T14:02:34;7.53;;;4.87;;
4837;SDS011;2433;48.768;9.154;2023-04-25T14:05:01;8.57;;;6.20;;
4837;SDS011;2433;48.768;9.154;2023-04-25T14:07:26;8.00;;;5.47;;
4837;SDS011;2433;48.768;9.154;2023-04-25T14:09:52;6.33;;;5.07;;
4837;SDS011;2433;48.768;9.154;2023-04-25T14:12:18;4.63;;;3.90;;
4837;SDS011;2433;48.768;9.154;2023-04-25T14:14:44;8.60;;;5.47;;
4837;SDS011;2433;48.768;9.154;2023-04-25T14:17:09;8.90;;;5.40;;
4837;SDS011;2433;48.768;9.154;2023-04-25T14:19:35;2.40;;;2.17;;
4837;SDS011;2433;48.768;9.154;2023-04-25T14:22:01;5.13;;;2.13;;
4837;SDS011;2433;48.768;9.154;2023-04-25T14:24:27;5.63;;;4.40;;
4837;SDS011;2433;48.768;9.154;2023-04-25T14:26:52;4.97;;;4.10;;
4837;SDS011;2433;48.768;9.154;2023-04-25T14:29:18;5.77;;;4.30;;
4837;SDS011;2433;48.768;9.154;2023-04-25T14:31:43;3.67;;;3.00;;
4837;SDS011;2433;48.768;9.154;2023-04-25T14:34:10;4.47;;;4.00;;
4837;SDS011;2433;48.768;9.154;2023-04-25T14:36:36;4.17;;;3.73;;
4837;SDS011;2433;48.768;9.154;2023-04-25T14:39:02;5.30;;;4.10;;
4837;SDS011;2433;48.768;9.154;2023-04-25T14:41:30;4.80;;;3.50;;
4837;SDS011;2433;48.768;9.154;2023-04-25T14:43:56;4.10;;;3.70;;
4837;SDS011;2433;48.768;9.154;2023-04-25T14:46:22;9.10;;;4.90;;
4837;SDS011;2433;48.768;9.154;2023-04-25T14:48:48;4.70;;;4.20;;
4837;SDS011;2433;48.768;9.154;2023-04-25T14:51:15;4.57;;;4.03;;
4837;SDS011;2433;48.768;9.154;2023-04-25T14:53:40;4.27;;;3.87;;
4837;SDS011;2433;48.768;9.154;2023-04-25T14:56:06;5.53;;;3.97;;
4837;SDS011;2433;48.768;9.154;2023-04-25T14:58:32;4.00;;;3.60;;
4837;SDS011;2433;48.768;9.154;2023-04-25T15:00:58;5.90;;;4.10;;
4837;SDS011;2433;48.768;9.154;2023-04-25T15:03:25;3.10;;;2.80;;
4837;SDS011;2433;48.768;9.154;2023-04-25T15:05:54;4.93;;;3.80;;
4837;SDS011;2433;48.768;9.154;2023-04-25T15:08:20;4.40;;;3.03;;
4837;SDS011;2433;48.768;9.154;2023-04-25T15:10:46;4.23;;;2.80;;
4837;SDS011;2433;48.768;9.154;2023-04-25T15:13:12;4.20;;;3.80;;
4837;SDS011;2433;48.768;9.154;2023-04-25T15:15:37;4.87;;;4.37;;
4837;SDS011;2433;48.768;9.154;2023-04-25T15:18:03;3.63;;;3.30;;
4837;SDS011;2433;48.768;9.154;2023-04-25T15:20:29;4.63;;;4.17;;
4837;SDS011;2433;48.768;9.154;2023-04-25T15:22:54;5.03;;;3.20;;
4837;SDS011;2433;48.768;9.154;2023-04-25T15:25:20;5.40;;;3.73;;
4837;SDS011;2433;48.768;9.154;2023-04-25T15:27:46;4.20;;;3.80;;
4837;SDS011;2433;48.768;9.154;2023-04-25T15:30:14;5.67;;;4.10;;
4837;SDS011;2433;48.768;9.154;2023-04-25T15:32:41;4.27;;;3.87;;
4837;SDS011;2433;48.768;9.154;2023-04-25T15:35:07;4.70;;;3.63;;
4837;SDS011;2433;48.768;9.154;2023-04-25T15:37:33;6.90;;;3.57;;
4837;SDS011;2433;48.768;9.154;2023-04-25T15:40:04;5.60;;;3.90;;
4837;SDS011;2433;48.768;9.154;2023-04-25T15:42:41;7.10;;;4.13;;